Leesburg, FL

12:57 PM EDT on May 26, 2015 (GMT -0400)
Leesburg Regional | | Change Station
CLOSE
Current Station
Airport
Location: Leesburg,
Elevation: 75 ft
Nearby Weather Stations

Elev 75 ft 28.82 °N, 81.81 °W | Updated 1 hour ago

Clear
Clear
85 °F
Feels Like 89 °F
N
9
Wind Variable Wind from South

Today
High -- | Low -- °F
--% Chance of Precip.
Yesterday
High -- | Low -- °F
Precip. -- in
6:31 AM 8:17 PM
First Quarter, 59% visible
Pressure 30.22 in
Visibility 10.0 miles
Clouds Clear
Heat Index 89 °F
Dew Point 70 °F
Humidity 61%
Rainfall 0.00 in
Snow Depth Not available.
UV 14 out of 12
Pollen 5.00 out of 12
Air Quality Not available.
Flu Activity Sporadic
METAR KLEE 261553Z 17008KT 10SM CLR 29/21 A3023 RMK AO2 SLP234 T02940211

More Conditions Fewer Conditions

Pressure 30.22 in
Visibility 10.0 miles
Clouds Clear
Heat Index 89 °F
Dew Point 70 °F
Humidity 61%
Rainfall 0.00 in
Snow Depth Not available.
UV 14 out of 12
Pollen 5.00 out of 12
Air Quality Not available.
Flu Activity Sporadic
METAR KLEE 261553Z 17008KT 10SM CLR 29/21 A3023 RMK AO2 SLP234 T02940211

More Conditions Fewer Conditions

Nowcast | as of 10:00 am EDT on May 26, 2015

small band of isolated showers moving west-northwest... At 1000 am...Doppler radar showed a narrow band of isolated showers extending from offshore Martin County to Port Saint Lucie and Fort Pierce...and inland across western Indian River...central Osceola and western Orange counties. Through early afternoon...this activity will weaken as it moves west-northwest at 15 mph. A few inland spots over Saint Lucie...Indian River...Osceola...Okeechobee and lake counties may experience a passing light rain shower. Remember...rough surf and numerous strong rip currents will impact the beaches again today. If you are heading to the beach and you decide to enter the water...remember to swim only within sight of a lifeguard...and never swim alone. Heed all warnings issued by the beach patrol. Additional details...including graphics are available online at: http://www.Srh.NOAA.Gov/mlb/blog.Php

×

10-Day Weather Forecast

Almanac

Astronomy

May. 26, 2015 Rise Set
Actual Time
Civil Twilight
Nautical Twilight
Astronomical Twilight
Moon
Length of Visible Light
Length of Day
Tomorrow will be .
, % of the Moon is Illuminated

Today's Extremes

State Highs State Lows

Community

WunderPhotos

Upload Photos

1,824,370 photos uploaded!

WunderBlogs® & News

Nearby

Air Quality

  Air Quality AQ Index Pollutant
Not available.

Snow Depth

Station Depth Elevation

Earthquake Activity

City Distance Mag. Time & Date
Minimum magnitude displayed is 2.5.

Coastal Water Temperatures

Place Temperature

Stations

Nearby Weather Stations

Station Location Temp. Windchill Dew Point Humidity Wind Precip. Elev Updated Type